PWSweather.com
Personal Weather Stations
Station Observations
REUBENS
Camas Prairie, Reubens, ID

Camas PrairieReubens, ID

Lat: 46.35417, Lon: -116.53167

Elevation: 3480

Station Type: Davis VantagePro 2

http://www.theobrienranch.com/wx/wx.htm

Latest ConditionsUpdated 9:30:01 PM PDT Tuesday, Mar 31, 2015
Currently Today's Max Today's Min Today's Average
Temperature 40.7°F4.8°C 43.2°F6.2°C 40.7°F4.8°C 41.8°F5.4°C
Dew Point 28.7°F-1.8°C 33.3°F0.7°C 28.6°F-1.9°C 30.8°F-0.7°C
Winds 13.3 mph WNW21.4 kmh WNW 13.3 mph WNW21.4 kmh WNW - 7.2 mph 11.6 kmh
Wind Gusts 18.0 mph29.0 kmh 18.0 mph29.0 kmh - -
Humidity 62% 69% 60% 65%
Pressure 29.98 in1015.2 mb 29.98 in1015.2 mb 29.94 in1013.9 mb -
Precipitation - 0.08 in2.0 mm - -
Hour Temp Dew Point Humidity Winds Wind Gusts Pressure Precip Precip Rate Daily Precip Total
09:30 PM 40.7°F4.8°C 28.7°F-1.8°C 62% 13.3 mph WNW21.4 kmh WNW 18.0 mph29.0 kmh 29.98 in1015.2 mb - 0.00 in0.0 mm 0.08 in2.0 mm
09:00 PM 40.9°F4.9°C 28.8°F-1.8°C 62% 12.7 mph W20.4 kmh W 13.0 mph20.9 kmh 29.98 in1015.2 mb - 0.00 in0.0 mm 0.08 in2.0 mm
08:30 PM 41.5°F5.3°C 28.6°F-1.9°C 60% 11.8 mph W19.0 kmh W 14.0 mph22.5 kmh 29.97 in1014.9 mb - 0.00 in0.0 mm 0.08 in2.0 mm
08:00 PM 40.7°F4.8°C 30.2°F-1.0°C 66% 6.1 mph W9.8 kmh W 7.0 mph11.3 kmh 29.96 in1014.6 mb - 0.00 in0.0 mm 0.08 in2.0 mm
07:30 PM 41.2°F5.1°C 31.1°F-0.5°C 67% 3.9 mph WSW6.3 kmh WSW 5.0 mph8.0 kmh 29.97 in1014.9 mb - 0.00 in0.0 mm 0.08 in2.0 mm
07:00 PM 42.2°F5.7°C 30.1°F-1.1°C 62% 4.1 mph W6.6 kmh W 5.0 mph8.0 kmh 29.96 in1014.6 mb - 0.00 in0.0 mm 0.08 in2.0 mm
06:30 PM 42.5°F5.8°C 31.2°F-0.4°C 64% 5.6 mph WNW9.0 kmh WNW 13.0 mph20.9 kmh 29.96 in1014.6 mb - 0.00 in0.0 mm 0.08 in2.0 mm
06:00 PM 42.7°F5.9°C 32.9°F0.5°C 68% 4.3 mph W6.9 kmh W 5.0 mph8.0 kmh 29.96 in1014.6 mb - 0.00 in0.0 mm 0.08 in2.0 mm
05:30 PM 43.2°F6.2°C 32.9°F0.5°C 67% 4.5 mph NW7.2 kmh NW 10.0 mph16.1 kmh 29.94 in1013.9 mb - 0.00 in0.0 mm 0.08 in2.0 mm
05:00 PM 42.8°F6.0°C 33.3°F0.7°C 69% 5.9 mph NW9.5 kmh NW 7.0 mph11.3 kmh 29.94 in1013.9 mb - 0.00 in0.0 mm 0.08 in2.0 mm
04:30 PM 42.9°F6.1°C 33.0°F0.6°C 68% 6.9 mph WNW11.1 kmh WNW 8.0 mph12.9 kmh 29.95 in1014.2 mb - 0.01 in0.3 mm 0.08 in2.0 mm
04:00 PM 43.8°F6.6°C 32.8°F0.4°C 65% 11.7 mph W18.8 kmh W 22.0 mph35.4 kmh 29.93 in1013.5 mb - 0.00 in0.0 mm 0.07 in1.8 mm
03:30 PM 45.3°F7.4°C 36.4°F2.4°C 71% 10.5 mph WNW16.9 kmh WNW 14.0 mph22.5 kmh 29.91 in1012.9 mb - 0.00 in0.0 mm 0.07 in1.8 mm
03:00 PM 46.9°F8.3°C 38.7°F3.7°C 73% 6.6 mph WNW10.6 kmh WNW 9.0 mph14.5 kmh 29.89 in1012.2 mb - 0.00 in0.0 mm 0.07 in1.8 mm
02:30 PM 45.0°F7.2°C 37.2°F2.9°C 74% 4.9 mph NW7.9 kmh NW 10.0 mph16.1 kmh 29.90 in1012.5 mb - 0.00 in0.0 mm 0.07 in1.8 mm
02:00 PM 43.8°F6.6°C 37.0°F2.8°C 77% 6.6 mph WNW10.6 kmh WNW 13.0 mph20.9 kmh 29.90 in1012.5 mb - 0.00 in0.0 mm 0.07 in1.8 mm
01:30 PM 42.3°F5.7°C 38.1°F3.4°C 85% 8.2 mph WNW13.2 kmh WNW 12.0 mph19.3 kmh 29.89 in1012.2 mb - 0.00 in0.0 mm 0.07 in1.8 mm
01:00 PM 41.5°F5.3°C 38.8°F3.8°C 90% 8.8 mph WNW14.2 kmh WNW 10.0 mph16.1 kmh 29.89 in1012.2 mb - 0.04 in1.0 mm 0.07 in1.8 mm
12:30 PM 41.6°F5.3°C 38.9°F3.8°C 90% 4.8 mph NW7.7 kmh NW 6.0 mph9.7 kmh 29.89 in1012.2 mb - 0.03 in0.8 mm 0.03 in0.8 mm
12:00 PM 43.3°F6.3°C 39.1°F3.9°C 85% 5.0 mph NW8.0 kmh NW 7.0 mph11.3 kmh 29.88 in1011.9 mb - 0.00 in0.0 mm 0.00 in0.0 mm
11:30 AM 46.1°F7.8°C 39.3°F4.1°C 77% 2.9 mph NNW4.7 kmh NNW 6.0 mph9.7 kmh 29.88 in1011.9 mb - 0.00 in0.0 mm 0.00 in0.0 mm
11:00 AM 46.4°F8.0°C 38.9°F3.8°C 75% 4.3 mph NW6.9 kmh NW 5.0 mph8.0 kmh 29.87 in1011.5 mb - 0.00 in0.0 mm 0.00 in0.0 mm
10:30 AM 47.8°F8.8°C 39.6°F4.2°C 73% 2.0 mph NNW3.2 kmh NNW 2.0 mph3.2 kmh 29.86 in1011.2 mb - 0.00 in0.0 mm 0.00 in0.0 mm
10:00 AM 47.0°F8.3°C 39.5°F4.2°C 75% 2.3 mph NW3.7 kmh NW 5.0 mph8.0 kmh 29.86 in1011.2 mb - 0.00 in0.0 mm 0.00 in0.0 mm
09:30 AM 47.7°F8.7°C 39.5°F4.2°C 73% Calm Calm 1.0 mph1.6 kmh 29.85 in1010.8 mb - 0.00 in0.0 mm 0.00 in0.0 mm
09:00 AM 49.0°F9.4°C 39.6°F4.2°C 70% 1.1 mph NW1.8 kmh NW 1.0 mph1.6 kmh 29.84 in1010.5 mb - 0.00 in0.0 mm 0.00 in0.0 mm
08:30 AM 46.4°F8.0°C 39.2°F4.0°C 76% Calm Calm -- 29.84 in1010.5 mb - 0.00 in0.0 mm 0.00 in0.0 mm
08:00 AM 45.5°F7.5°C 38.4°F3.6°C 76% 0.1 mph NW0.2 kmh NW 2.0 mph3.2 kmh 29.84 in1010.5 mb - 0.00 in0.0 mm 0.00 in0.0 mm
07:30 AM 45.7°F7.6°C 38.6°F3.7°C 76% 2.9 mph NNW4.7 kmh NNW 5.0 mph8.0 kmh 29.80 in1009.1 mb - 0.00 in0.0 mm 0.00 in0.0 mm
07:00 AM 45.8°F7.7°C 38.7°F3.7°C 76% 2.6 mph NW4.2 kmh NW 4.0 mph6.4 kmh 29.80 in1009.1 mb - 0.00 in0.0 mm 0.00 in0.0 mm
06:30 AM 45.7°F7.6°C 38.9°F3.8°C 77% 3.8 mph NW6.1 kmh NW 5.0 mph8.0 kmh 29.79 in1008.8 mb - 0.00 in0.0 mm 0.00 in0.0 mm
06:00 AM 46.5°F8.1°C 39.7°F4.3°C 77% 2.6 mph NW4.2 kmh NW 4.0 mph6.4 kmh 29.78 in1008.5 mb - 0.00 in0.0 mm 0.00 in0.0 mm
05:30 AM 47.0°F8.3°C 40.2°F4.6°C 77% 1.1 mph NW1.8 kmh NW 2.0 mph3.2 kmh 29.76 in1007.8 mb - 0.00 in0.0 mm 0.00 in0.0 mm
05:00 AM 47.5°F8.6°C 40.3°F4.6°C 76% 4.2 mph NW6.8 kmh NW 6.0 mph9.7 kmh 29.75 in1007.5 mb - 0.00 in0.0 mm 0.00 in0.0 mm
04:30 AM 49.0°F9.4°C 40.7°F4.8°C 73% 2.6 mph W4.2 kmh W 5.0 mph8.0 kmh 29.74 in1007.1 mb - 0.00 in0.0 mm 0.00 in0.0 mm
04:00 AM 49.9°F9.9°C 40.9°F4.9°C 71% 2.7 mph W4.3 kmh W 4.0 mph6.4 kmh 29.73 in1006.8 mb - 0.00 in0.0 mm 0.00 in0.0 mm
03:30 AM 49.6°F9.8°C 41.2°F5.1°C 73% 3.0 mph WSW4.8 kmh WSW 4.0 mph6.4 kmh 29.73 in1006.8 mb - 0.00 in0.0 mm 0.00 in0.0 mm
03:00 AM 49.2°F9.6°C 41.3°F5.2°C 74% 4.1 mph WSW6.6 kmh WSW 5.0 mph8.0 kmh 29.73 in1006.8 mb - 0.00 in0.0 mm 0.00 in0.0 mm
02:30 AM 49.2°F9.6°C 41.3°F5.2°C 74% 2.0 mph WSW3.2 kmh WSW 3.0 mph4.8 kmh 29.72 in1006.4 mb - 0.00 in0.0 mm 0.00 in0.0 mm
02:00 AM 51.0°F10.6°C 41.2°F5.1°C 69% 4.8 mph WSW7.7 kmh WSW 5.0 mph8.0 kmh 29.72 in1006.4 mb - 0.00 in0.0 mm 0.00 in0.0 mm
01:30 AM 48.1°F8.9°C 39.5°F4.2°C 72% 2.9 mph SW4.7 kmh SW 3.0 mph4.8 kmh 29.73 in1006.8 mb - 0.00 in0.0 mm 0.00 in0.0 mm
01:00 AM 50.4°F10.2°C 39.1°F3.9°C 65% 3.1 mph SW5.0 kmh SW 3.0 mph4.8 kmh 29.73 in1006.8 mb - 0.00 in0.0 mm 0.00 in0.0 mm
12:30 AM 47.7°F8.7°C 39.1°F3.9°C 72% 3.8 mph SSW6.1 kmh SSW 5.0 mph8.0 kmh 29.77 in1008.1 mb - 0.00 in0.0 mm 0.00 in0.0 mm
12:00 AM 47.5°F8.6°C 39.6°F4.2°C 74% 0.8 mph SSW1.3 kmh SSW 3.0 mph4.8 kmh 29.78 in1008.5 mb - 0.00 in0.0 mm 0.00 in0.0 mm